createdAt,value
2022-09-13T00:00:40.546Z,18.62
2022-09-13T00:03:08.308Z,18.62
2022-09-13T00:05:36.257Z,18.63
2022-09-13T00:08:04.269Z,18.63
2022-09-13T00:10:33.062Z,18.66
2022-09-13T00:13:00.523Z,18.66
2022-09-13T00:15:28.406Z,18.68
2022-09-13T00:17:57.257Z,18.69
2022-09-13T00:20:24.766Z,18.71
2022-09-13T00:22:52.463Z,18.72
2022-09-13T00:25:20.441Z,18.74
2022-09-13T00:27:48.179Z,18.75
2022-09-13T00:30:15.667Z,18.77
2022-09-13T00:32:43.155Z,18.77
2022-09-13T00:35:11.992Z,18.79
2022-09-13T00:37:39.544Z,18.79
2022-09-13T00:40:08.027Z,18.79
2022-09-13T00:42:35.563Z,18.78
2022-09-13T00:45:04.034Z,18.78
2022-09-13T00:47:34.957Z,18.78
2022-09-13T00:50:05.355Z,18.78
2022-09-13T00:52:36.605Z,18.80
2022-09-13T00:55:05.605Z,18.81
2022-09-13T00:57:35.103Z,18.82
2022-09-13T01:00:08.928Z,18.83
2022-09-13T01:02:36.764Z,18.85
2022-09-13T01:05:04.453Z,18.85
2022-09-13T01:07:31.972Z,18.85
2022-09-13T01:10:01.070Z,18.85
2022-09-13T01:12:33.269Z,18.87
2022-09-13T01:15:01.889Z,18.86
2022-09-13T01:17:31.056Z,18.87
2022-09-13T01:19:58.912Z,18.87
2022-09-13T01:22:36.399Z,18.88
2022-09-13T01:25:18.778Z,18.90
2022-09-13T01:27:52.638Z,18.91
2022-09-13T01:30:21.855Z,18.91
2022-09-13T01:33:04.691Z,18.92
2022-09-13T01:35:40.146Z,18.92
2022-09-13T01:38:15.119Z,18.93
2022-09-13T01:40:52.282Z,18.92
2022-09-13T01:43:26.132Z,18.92
2022-09-13T01:46:00.213Z,18.92
2022-09-13T01:48:35.495Z,18.91
2022-09-13T01:51:06.199Z,18.92
2022-09-13T01:53:36.078Z,18.92
2022-09-13T01:56:06.678Z,18.92
2022-09-13T01:58:39.040Z,18.93
2022-09-13T02:01:11.049Z,18.95
2022-09-13T02:03:41.015Z,18.96
2022-09-13T02:06:10.429Z,18.97
2022-09-13T02:08:41.657Z,18.97
2022-09-13T02:11:10.741Z,18.97
2022-09-13T02:13:40.598Z,18.98
2022-09-13T02:16:12.294Z,18.99
2022-09-13T02:18:46.622Z,19.00
2022-09-13T02:21:16.659Z,18.99
2022-09-13T02:23:46.614Z,19.00
2022-09-13T02:26:15.567Z,18.96
2022-09-13T02:28:46.635Z,18.89
2022-09-13T02:31:18.026Z,18.84
2022-09-13T02:33:48.054Z,18.78
2022-09-13T02:36:18.037Z,18.73
2022-09-13T02:38:48.112Z,18.68
2022-09-13T02:41:19.273Z,18.63
2022-09-13T02:43:49.654Z,18.59
2022-09-13T02:46:22.821Z,18.54
2022-09-13T02:48:59.192Z,18.51
2022-09-13T02:51:31.072Z,18.46
2022-09-13T02:54:05.262Z,18.42
2022-09-13T02:56:36.373Z,18.37
2022-09-13T02:59:06.381Z,18.34
2022-09-13T03:01:36.494Z,18.30
2022-09-13T03:04:04.123Z,18.29
2022-09-13T03:06:31.640Z,18.27
2022-09-13T03:09:01.527Z,18.22
2022-09-13T03:11:33.993Z,18.19
2022-09-13T03:14:19.732Z,18.13
2022-09-13T03:16:57.060Z,18.08
2022-09-13T03:19:30.325Z,18.04
2022-09-13T03:22:07.454Z,18.00
2022-09-13T03:24:39.617Z,17.98
2022-09-13T03:27:11.924Z,17.95
2022-09-13T03:29:42.604Z,17.93
2022-09-13T03:32:19.746Z,17.93
2022-09-13T03:34:50.121Z,17.92
2022-09-13T03:37:23.168Z,17.91
2022-09-13T03:39:54.732Z,17.90
2022-09-13T03:42:27.099Z,17.90
2022-09-13T03:44:56.608Z,17.89
2022-09-13T03:47:26.331Z,17.89
2022-09-13T03:49:54.474Z,17.89
2022-09-13T03:52:22.027Z,17.89
2022-09-13T03:54:49.550Z,17.88
2022-09-13T03:57:18.052Z,17.89
2022-09-13T03:59:47.185Z,17.88
2022-09-13T04:02:15.645Z,17.88
2022-09-13T04:04:45.324Z,17.87
2022-09-13T04:07:13.976Z,17.87
2022-09-13T04:09:41.540Z,17.86
2022-09-13T04:12:10.161Z,17.88
2022-09-13T04:14:37.699Z,17.88
2022-09-13T04:17:05.248Z,17.89
2022-09-13T04:19:32.777Z,17.89
2022-09-13T04:22:01.658Z,17.92
2022-09-13T04:24:29.741Z,17.92
2022-09-13T04:26:57.541Z,17.93
2022-09-13T04:29:26.411Z,17.93
2022-09-13T04:31:54.491Z,17.94
2022-09-13T04:34:23.008Z,17.95
2022-09-13T04:36:50.960Z,17.96
2022-09-13T04:39:20.001Z,17.97
2022-09-13T04:41:48.255Z,17.97
2022-09-13T04:44:16.500Z,17.99
2022-09-13T04:46:44.442Z,17.99
2022-09-13T04:49:12.285Z,18.00
2022-09-13T04:51:39.796Z,18.00
2022-09-13T04:54:08.480Z,18.01
2022-09-13T04:56:39.805Z,18.01
2022-09-13T04:59:07.935Z,18.01
2022-09-13T05:01:35.498Z,17.99
2022-09-13T05:04:03.204Z,17.97
2022-09-13T05:06:30.732Z,17.95
2022-09-13T05:08:58.262Z,17.92
2022-09-13T05:11:26.488Z,17.92
2022-09-13T05:13:56.176Z,17.89
2022-09-13T05:16:24.123Z,17.87
2022-09-13T05:18:52.073Z,17.86
2022-09-13T05:21:20.110Z,17.84
2022-09-13T05:23:49.453Z,17.82
2022-09-13T05:26:17.315Z,17.81
2022-09-13T05:28:44.869Z,17.81
2022-09-13T05:31:16.637Z,17.81
2022-09-13T05:33:44.729Z,17.81
2022-09-13T05:36:12.238Z,17.80
2022-09-13T05:38:39.728Z,17.79
2022-09-13T05:41:07.261Z,17.78
2022-09-13T05:43:35.470Z,17.78
2022-09-13T05:46:03.777Z,17.78
2022-09-13T05:48:35.139Z,17.79
2022-09-13T05:51:07.047Z,17.80
2022-09-13T05:53:34.972Z,17.80
2022-09-13T05:56:02.672Z,17.79
2022-09-13T05:58:30.197Z,17.79
2022-09-13T06:00:58.157Z,17.79
2022-09-13T06:03:25.994Z,17.79
2022-09-13T06:05:57.441Z,17.78
2022-09-13T06:08:25.055Z,17.77
2022-09-13T06:10:56.413Z,17.77
2022-09-13T06:13:24.328Z,17.78
2022-09-13T06:15:52.214Z,17.78
2022-09-13T06:18:19.927Z,17.76
2022-09-13T06:20:47.751Z,17.76
2022-09-13T06:23:16.654Z,17.74
2022-09-13T06:25:44.441Z,17.75
2022-09-13T06:28:11.988Z,17.74
2022-09-13T06:30:39.478Z,17.79
2022-09-13T06:33:06.971Z,17.86
2022-09-13T06:35:34.534Z,17.92
2022-09-13T06:38:02.040Z,17.96
2022-09-13T06:40:30.937Z,17.96
2022-09-13T06:42:58.506Z,17.95
2022-09-13T06:45:26.504Z,18.00
2022-09-13T06:47:55.065Z,18.18
2022-09-13T06:50:22.915Z,18.52
2022-09-13T06:52:50.430Z,18.98
2022-09-13T06:55:18.026Z,19.35
2022-09-13T06:57:46.887Z,19.50
2022-09-13T07:00:15.058Z,19.57
2022-09-13T07:02:42.591Z,19.84
2022-09-13T07:05:10.906Z,20.27
2022-09-13T07:07:38.396Z,20.46
2022-09-13T07:10:06.412Z,20.41
2022-09-13T07:12:33.983Z,20.34
2022-09-13T07:15:02.901Z,20.55
2022-09-13T07:17:31.590Z,20.94
2022-09-13T07:19:59.254Z,21.46
2022-09-13T07:22:27.909Z,21.92
2022-09-13T07:24:55.406Z,22.13
2022-09-13T07:27:22.923Z,22.46
2022-09-13T07:29:50.404Z,22.97
2022-09-13T07:32:19.711Z,23.56
2022-09-13T07:34:47.242Z,24.14
2022-09-13T07:37:14.769Z,24.57
2022-09-13T07:39:42.318Z,25.04
2022-09-13T07:42:09.888Z,25.38
2022-09-13T07:44:38.438Z,25.60
2022-09-13T07:47:07.586Z,25.53
2022-09-13T07:49:36.443Z,25.64
2022-09-13T07:52:04.016Z,25.95
2022-09-13T07:54:31.592Z,26.30
2022-09-13T07:56:59.099Z,26.60
2022-09-13T07:59:30.043Z,26.97
2022-09-13T08:01:57.885Z,27.39
2022-09-13T08:04:27.013Z,27.75
2022-09-13T08:06:55.910Z,28.08
2022-09-13T08:09:24.095Z,28.36
2022-09-13T08:11:52.802Z,28.48
2022-09-13T08:14:21.050Z,28.51
2022-09-13T08:16:48.637Z,28.47
2022-09-13T08:19:17.211Z,28.44
2022-09-13T08:21:45.140Z,28.54
2022-09-13T08:24:15.985Z,28.72
2022-09-13T08:26:43.694Z,28.93
2022-09-13T08:29:12.930Z,29.14
2022-09-13T08:31:40.587Z,29.47
2022-09-13T08:34:08.805Z,29.59
2022-09-13T08:36:36.761Z,29.33
2022-09-13T08:39:04.478Z,29.27
2022-09-13T08:41:45.267Z,29.34
2022-09-13T08:44:19.006Z,29.14
2022-09-13T08:46:47.838Z,28.94
2022-09-13T08:49:18.863Z,28.97
2022-09-13T08:51:48.264Z,29.20
2022-09-13T08:54:16.547Z,29.53
2022-09-13T08:56:51.494Z,29.76
2022-09-13T08:59:34.200Z,29.67
2022-09-13T09:02:08.733Z,29.51
2022-09-13T09:04:39.946Z,29.52
2022-09-13T09:07:11.482Z,29.62
2022-09-13T09:09:42.109Z,29.78
2022-09-13T09:12:16.414Z,29.89
2022-09-13T09:14:46.599Z,30.08
2022-09-13T09:17:15.790Z,30.27
2022-09-13T09:19:44.890Z,30.22
2022-09-13T09:22:14.811Z,29.85
2022-09-13T09:24:46.606Z,29.71
2022-09-13T09:27:16.398Z,29.78
2022-09-13T09:29:44.946Z,29.89
2022-09-13T09:32:18.717Z,29.99
2022-09-13T09:34:53.732Z,30.00
2022-09-13T09:37:22.185Z,30.00
2022-09-13T09:39:51.006Z,29.97
2022-09-13T09:42:24.879Z,29.86
2022-09-13T09:44:53.502Z,29.90
2022-09-13T09:47:27.229Z,29.94
2022-09-13T09:50:10.382Z,29.96
2022-09-13T09:52:40.741Z,29.88
2022-09-13T09:55:28.942Z,29.77
2022-09-13T09:57:59.403Z,29.79
2022-09-13T10:00:28.860Z,29.79
2022-09-13T10:02:59.546Z,29.73
2022-09-13T10:05:27.795Z,29.66
2022-09-13T10:07:59.549Z,29.72
2022-09-13T10:10:31.267Z,29.80
2022-09-13T10:13:00.843Z,29.86
2022-09-13T10:15:32.912Z,29.86
2022-09-13T10:18:43.890Z,29.69
2022-09-13T10:21:07.156Z,29.57
2022-09-13T10:23:35.422Z,29.55
2022-09-13T10:26:05.573Z,29.55
2022-09-13T10:28:36.255Z,29.59
2022-09-13T10:31:05.958Z,29.67
2022-09-13T10:33:35.948Z,29.78
2022-09-13T10:36:05.659Z,29.87
2022-09-13T10:38:34.907Z,29.76
2022-09-13T10:41:03.495Z,29.50
2022-09-13T10:43:32.185Z,29.29
2022-09-13T10:46:02.762Z,29.09
2022-09-13T10:48:32.267Z,29.02
2022-09-13T10:51:04.468Z,28.99
2022-09-13T10:53:34.270Z,28.93
2022-09-13T10:56:02.625Z,28.80
2022-09-13T10:58:30.399Z,28.66
2022-09-13T11:01:24.779Z,28.57
2022-09-13T11:04:04.354Z,28.51
2022-09-13T11:06:35.361Z,28.39
2022-09-13T11:09:08.951Z,28.35
2022-09-13T11:11:40.756Z,28.35
2022-09-13T11:14:17.577Z,28.35
2022-09-13T11:16:52.269Z,28.32
2022-09-13T11:19:40.097Z,28.42
2022-09-13T11:22:17.745Z,28.55
2022-09-13T11:24:54.502Z,28.66
2022-09-13T11:27:26.945Z,28.72
2022-09-13T11:30:02.252Z,28.82
2022-09-13T11:32:39.629Z,28.89
2022-09-13T11:35:23.773Z,28.93
2022-09-13T11:37:56.967Z,29.01
2022-09-13T11:40:29.651Z,29.04
2022-09-13T11:43:06.286Z,29.09
2022-09-13T11:45:39.787Z,29.06
2022-09-13T11:48:28.173Z,29.02
2022-09-13T11:51:03.117Z,28.95
2022-09-13T11:53:50.267Z,28.77
2022-09-13T11:56:22.921Z,28.69
2022-09-13T11:58:52.820Z,28.59
2022-09-13T12:01:23.537Z,28.46
2022-09-13T12:03:53.624Z,28.21
2022-09-13T12:06:24.494Z,27.96
2022-09-13T12:08:54.667Z,27.77
2022-09-13T12:11:24.657Z,27.64
2022-09-13T12:13:53.387Z,27.58
2022-09-13T12:16:24.927Z,27.47
2022-09-13T12:18:54.061Z,27.38
2022-09-13T12:21:24.088Z,27.25
2022-09-13T12:23:56.031Z,27.02
2022-09-13T12:26:26.160Z,26.86
2022-09-13T12:28:55.527Z,26.74
2022-09-13T12:31:24.370Z,26.65
2022-09-13T12:33:52.066Z,26.56
2022-09-13T12:36:39.762Z,26.45
2022-09-13T12:39:16.600Z,26.40
2022-09-13T12:41:51.849Z,26.34
2022-09-13T12:44:25.078Z,26.25
2022-09-13T12:47:11.533Z,26.22
2022-09-13T12:49:46.036Z,26.20
2022-09-13T12:52:28.483Z,26.07
2022-09-13T12:55:35.533Z,25.84
2022-09-13T12:58:07.992Z,25.73
2022-09-13T13:00:39.932Z,25.67
2022-09-13T13:03:15.056Z,25.56
2022-09-13T13:05:44.353Z,25.52
2022-09-13T13:08:24.272Z,25.58
2022-09-13T13:11:03.525Z,25.67
2022-09-13T13:13:34.641Z,25.73
2022-09-13T13:16:03.902Z,25.66
2022-09-13T13:18:33.436Z,25.49
2022-09-13T13:21:23.777Z,25.29
2022-09-13T13:24:06.212Z,25.24
2022-09-13T13:26:48.602Z,25.24
2022-09-13T13:29:17.672Z,25.23
2022-09-13T13:32:04.327Z,25.10
2022-09-13T13:34:35.154Z,24.93
2022-09-13T13:37:04.235Z,24.83
2022-09-13T13:39:39.838Z,24.75
2022-09-13T13:42:24.672Z,24.63
2022-09-13T13:44:58.502Z,24.61
2022-09-13T13:47:43.661Z,24.68
2022-09-13T13:50:16.706Z,24.71
2022-09-13T13:53:06.205Z,24.61
2022-09-13T13:55:41.433Z,24.58
2022-09-13T13:58:31.221Z,24.62
2022-09-13T14:01:00.648Z,24.57
2022-09-13T14:03:33.145Z,24.50
2022-09-13T14:06:06.219Z,24.52
2022-09-13T14:08:38.691Z,24.55
2022-09-13T14:11:15.109Z,24.54
2022-09-13T14:13:52.045Z,24.55
2022-09-13T14:16:29.442Z,24.49
2022-09-13T14:19:07.400Z,24.41
2022-09-13T14:21:34.909Z,24.31
2022-09-13T14:24:09.491Z,24.24
2022-09-13T14:26:37.190Z,24.16
2022-09-13T14:29:08.933Z,24.07
2022-09-13T14:31:36.690Z,24.00
2022-09-13T14:34:04.376Z,23.91
2022-09-13T14:36:31.901Z,23.86
2022-09-13T14:39:00.247Z,23.85
2022-09-13T14:41:31.775Z,23.78
2022-09-13T14:44:20.219Z,23.69
2022-09-13T14:46:56.257Z,23.55
2022-09-13T14:49:26.055Z,23.50
2022-09-13T14:51:56.826Z,23.46
2022-09-13T14:54:29.814Z,23.39
2022-09-13T14:56:58.794Z,23.26
2022-09-13T14:59:28.789Z,23.19
2022-09-13T15:02:02.788Z,23.14
2022-09-13T15:04:30.866Z,23.09
2022-09-13T15:07:09.117Z,23.07
2022-09-13T15:09:38.296Z,22.98
2022-09-13T15:12:06.762Z,22.96
2022-09-13T15:14:37.273Z,22.92
2022-09-13T15:17:10.212Z,22.79
2022-09-13T15:19:39.126Z,22.69
2022-09-13T15:22:12.391Z,22.62
2022-09-13T15:24:43.714Z,22.56
2022-09-13T15:27:18.393Z,22.50
2022-09-13T15:29:49.753Z,22.48
2022-09-13T15:32:22.720Z,22.48
2022-09-13T15:34:51.083Z,22.45
2022-09-13T15:37:20.635Z,22.39
2022-09-13T15:39:49.434Z,22.31
2022-09-13T15:42:17.747Z,22.23
2022-09-13T15:44:45.530Z,22.14
2022-09-13T15:47:17.086Z,22.06
2022-09-13T15:49:48.821Z,21.96
2022-09-13T15:52:17.571Z,21.87
2022-09-13T15:54:47.530Z,21.81
2022-09-13T15:57:18.203Z,21.74
2022-09-13T15:59:45.711Z,21.64
2022-09-13T16:02:18.667Z,21.58
2022-09-13T16:04:46.253Z,21.51
2022-09-13T16:07:17.119Z,21.44
2022-09-13T16:09:45.118Z,21.36
2022-09-13T16:12:12.683Z,21.31
2022-09-13T16:14:40.216Z,21.25
2022-09-13T16:17:11.273Z,21.20
2022-09-13T16:19:38.878Z,21.14
2022-09-13T16:22:09.675Z,21.10
2022-09-13T16:24:41.016Z,21.03
2022-09-13T16:27:08.558Z,20.96
2022-09-13T16:29:36.100Z,20.89
2022-09-13T16:32:04.041Z,20.83
2022-09-13T16:34:31.540Z,20.77
2022-09-13T16:36:59.040Z,20.67
2022-09-13T16:39:26.621Z,20.61
2022-09-13T16:41:55.514Z,20.56
2022-09-13T16:44:23.080Z,20.48
2022-09-13T16:46:50.640Z,20.37
2022-09-13T16:49:18.237Z,20.23
2022-09-13T16:51:45.779Z,20.12
2022-09-13T16:54:13.250Z,20.04
2022-09-13T16:56:41.383Z,19.95
2022-09-13T16:59:10.243Z,19.89
2022-09-13T17:01:37.863Z,19.81
2022-09-13T17:04:05.917Z,19.74
2022-09-13T17:06:33.479Z,19.65
2022-09-13T17:09:01.651Z,19.57
2022-09-13T17:11:30.491Z,19.48
2022-09-13T17:13:58.125Z,19.37
2022-09-13T17:16:29.343Z,19.26
2022-09-13T17:18:58.178Z,19.17
2022-09-13T17:21:25.733Z,19.08
2022-09-13T17:23:53.615Z,19.01
2022-09-13T17:26:21.169Z,18.96
2022-09-13T17:28:48.731Z,18.88
2022-09-13T17:31:16.783Z,18.82
2022-09-13T17:33:45.880Z,18.76
2022-09-13T17:36:14.488Z,18.73
2022-09-13T17:38:42.589Z,18.68
2022-09-13T17:41:11.573Z,18.62
2022-09-13T17:43:39.464Z,18.55
2022-09-13T17:46:07.938Z,18.48
2022-09-13T17:48:36.057Z,18.38
2022-09-13T17:51:05.729Z,18.32
2022-09-13T17:53:37.512Z,18.22
2022-09-13T17:56:05.021Z,18.14
2022-09-13T17:58:32.691Z,18.07
2022-09-13T18:01:03.396Z,18.01
2022-09-13T18:03:31.736Z,17.98
2022-09-13T18:05:59.751Z,17.94
2022-09-13T18:08:29.646Z,17.87
2022-09-13T18:11:12.658Z,17.81
2022-09-13T18:13:41.452Z,17.75
2022-09-13T18:16:09.820Z,17.70
2022-09-13T18:18:43.162Z,17.64
2022-09-13T18:21:11.515Z,17.59
2022-09-13T18:23:40.372Z,17.52
2022-09-13T18:26:10.982Z,17.45
2022-09-13T18:28:38.866Z,17.39
2022-09-13T18:31:07.430Z,17.34
2022-09-13T18:33:35.039Z,17.29
2022-09-13T18:36:03.658Z,17.21
2022-09-13T18:38:32.553Z,17.16
2022-09-13T18:41:03.153Z,17.11
2022-09-13T18:43:31.312Z,17.06
2022-09-13T18:45:59.631Z,17.01
2022-09-13T18:48:30.077Z,16.95
2022-09-13T18:50:58.319Z,16.90
2022-09-13T18:53:34.470Z,16.84
2022-09-13T18:56:05.260Z,16.79
2022-09-13T18:58:34.389Z,16.73
2022-09-13T19:01:03.482Z,16.67
2022-09-13T19:03:32.610Z,16.62
2022-09-13T19:06:11.065Z,16.56
2022-09-13T19:08:39.247Z,16.52
2022-09-13T19:11:23.793Z,16.46
2022-09-13T19:13:58.163Z,16.40
2022-09-13T19:16:26.520Z,16.35
2022-09-13T19:18:54.404Z,16.30
2022-09-13T19:21:23.784Z,16.27
2022-09-13T19:23:59.509Z,16.24
2022-09-13T19:26:31.366Z,16.21
2022-09-13T19:29:04.821Z,16.17
2022-09-13T19:31:33.145Z,16.13
2022-09-13T19:34:02.549Z,16.10
2022-09-13T19:36:34.031Z,16.04
2022-09-13T19:39:02.545Z,16.01
2022-09-13T19:41:31.691Z,15.97
2022-09-13T19:44:00.262Z,15.93
2022-09-13T19:46:28.890Z,15.90
2022-09-13T19:48:56.892Z,15.86
2022-09-13T19:51:26.864Z,15.81
2022-09-13T19:54:04.161Z,15.79
2022-09-13T19:56:34.105Z,15.74
2022-09-13T19:59:02.245Z,15.71
2022-09-13T20:01:31.551Z,15.69
2022-09-13T20:04:00.150Z,15.64
2022-09-13T20:06:28.241Z,15.60
2022-09-13T20:08:58.730Z,15.57
2022-09-13T20:11:28.374Z,15.52
2022-09-13T20:13:59.263Z,15.49
2022-09-13T20:16:28.531Z,15.45
2022-09-13T20:18:57.084Z,15.41
2022-09-13T20:21:25.313Z,15.39
2022-09-13T20:23:54.841Z,15.36
2022-09-13T20:26:24.237Z,15.33
2022-09-13T20:28:54.355Z,15.31
2022-09-13T20:31:23.450Z,15.28
2022-09-13T20:33:54.874Z,15.25
2022-09-13T20:36:22.388Z,15.21
2022-09-13T20:38:50.255Z,15.18
2022-09-13T20:41:18.444Z,15.13
2022-09-13T20:43:46.043Z,15.09
2022-09-13T20:46:14.416Z,15.05
2022-09-13T20:48:44.425Z,15.02
2022-09-13T20:51:12.933Z,14.99
2022-09-13T20:53:40.476Z,14.98
2022-09-13T20:56:09.180Z,14.95
2022-09-13T20:58:37.105Z,14.93
2022-09-13T21:01:05.696Z,14.92
2022-09-13T21:03:35.615Z,14.88
2022-09-13T21:06:04.510Z,14.88
2022-09-13T21:08:43.357Z,14.86
2022-09-13T21:11:12.638Z,14.82
2022-09-13T21:13:41.951Z,14.78
2022-09-13T21:16:10.616Z,14.75
2022-09-13T21:18:38.552Z,14.74
2022-09-13T21:21:08.080Z,14.71
2022-09-13T21:23:39.563Z,14.67
2022-09-13T21:26:08.221Z,14.65
2022-09-13T21:28:36.209Z,14.62
2022-09-13T21:31:05.063Z,14.58
2022-09-13T21:33:32.632Z,14.56
2022-09-13T21:36:01.132Z,14.53
2022-09-13T21:38:31.469Z,14.50
2022-09-13T21:41:00.534Z,14.48
2022-09-13T21:43:28.935Z,14.44
2022-09-13T21:46:00.527Z,14.41
2022-09-13T21:48:30.065Z,14.39
2022-09-13T21:51:03.000Z,14.38
2022-09-13T21:53:33.942Z,14.36
2022-09-13T21:56:01.648Z,14.35
2022-09-13T21:58:29.147Z,14.34
2022-09-13T22:00:56.730Z,14.34
2022-09-13T22:03:24.291Z,14.36
2022-09-13T22:05:56.084Z,14.36
2022-09-13T22:08:24.111Z,14.36
2022-09-13T22:10:53.041Z,14.36
2022-09-13T22:13:20.552Z,14.34
2022-09-13T22:15:48.063Z,14.32
2022-09-13T22:18:15.539Z,14.29
2022-09-13T22:20:43.024Z,14.27
2022-09-13T22:23:10.576Z,14.25
2022-09-13T22:25:41.192Z,14.24
2022-09-13T22:28:10.055Z,14.21
2022-09-13T22:30:37.645Z,14.18
2022-09-13T22:33:05.190Z,14.17
2022-09-13T22:35:32.705Z,14.13
2022-09-13T22:38:00.207Z,14.11
2022-09-13T22:40:27.828Z,14.08
2022-09-13T22:42:55.369Z,14.06
2022-09-13T22:45:24.208Z,14.03
2022-09-13T22:47:51.683Z,14.00
2022-09-13T22:50:19.193Z,13.99
2022-09-13T22:52:46.684Z,13.98
2022-09-13T22:55:14.153Z,13.94
2022-09-13T22:57:41.654Z,13.92
2022-09-13T23:00:10.262Z,13.90
2022-09-13T23:02:42.044Z,13.88
2022-09-13T23:05:12.734Z,13.86
2022-09-13T23:07:40.235Z,13.83
2022-09-13T23:10:08.402Z,13.82
2022-09-13T23:12:35.913Z,13.78
2022-09-13T23:15:03.423Z,13.77
2022-09-13T23:17:30.931Z,13.75
2022-09-13T23:19:59.898Z,13.73
2022-09-13T23:22:27.403Z,13.71
2022-09-13T23:24:54.868Z,13.69
2022-09-13T23:27:22.832Z,13.69
2022-09-13T23:29:50.658Z,13.68
2022-09-13T23:32:18.202Z,13.66
2022-09-13T23:34:45.709Z,13.65
2022-09-13T23:37:14.612Z,13.63
2022-09-13T23:39:43.478Z,13.64
2022-09-13T23:42:11.945Z,13.65
2022-09-13T23:44:39.509Z,13.67
2022-09-13T23:47:07.226Z,13.71
2022-09-13T23:49:34.741Z,13.75
2022-09-13T23:52:02.341Z,13.79
2022-09-13T23:54:31.193Z,13.84
2022-09-13T23:56:58.687Z,13.89
2022-09-13T23:59:26.226Z,13.93
